Time;durP1;ratioP1;P1;durP2;ratioP2;P2;SDS_P1;SDS_P2;PMS_P1;PMS_P2;Temp;Humidity;BMP_temperature;BMP_pressure;BME280_temperature;BME280_humidity;BME280_pressure;Samples;Min_cycle;Max_cycle;Signal;HPM_P1;HPM_P2
2022/05/25 00:00:03;;;;;;;;;;;;;;;20.29;60.30;99220.22;4503385;31;20038;-84
2022/05/25 00:02:28;;;;;;;;;;;;;;;20.23;60.30;99229.47;4517817;31;20316;-84
2022/05/25 00:04:55;;;;;;;;;;;;;;;20.20;60.29;99237.66;4517584;31;19976;-84
2022/05/25 00:07:20;;;;;;;;;;;;;;;20.21;60.29;99243.78;4490033;31;20020;-84
2022/05/25 00:09:46;;;;;;;;;;;;;;;20.26;60.29;99244.25;4503265;31;20028;-84
2022/05/25 00:12:11;;;;;;;;;;;;;;;20.24;60.30;99238.25;4503207;31;20056;-84
2022/05/25 00:14:36;;;;;;;;;;;;;;;20.25;60.29;99234.62;4502946;31;19985;-84
2022/05/25 00:17:02;;;;;;;;;;;;;;;20.21;60.29;99228.75;4517816;31;20516;-84
2022/05/25 00:22:12;;;;;;;;;;;;;;;20.08;60.29;99219.28;4517518;31;20021;-84
2022/05/25 00:24:37;;;;;;;;;;;;;;;20.07;60.28;99217.59;4516859;31;20533;-83
2022/05/25 00:27:02;;;;;;;;;;;;;;;19.95;60.28;99221.22;4502444;31;20718;-83
2022/05/25 00:29:27;;;;;;;;;;;;;;;19.88;60.27;99221.72;4502873;31;19968;-84
2022/05/25 00:31:53;;;;;;;;;;;;;;;19.86;60.28;99225.41;4517135;31;19983;-84
2022/05/25 00:34:18;;;;;;;;;;;;;;;19.82;60.28;99227.47;4502665;31;19983;-83
2022/05/25 00:36:43;;;;;;;;;;;;;;;19.89;60.28;99230.50;4517295;31;20012;-84
2022/05/25 00:39:09;;;;;;;;;;;;;;;19.85;60.28;99223.75;4502269;31;21230;-84
2022/05/25 00:41:34;;;;;;;;;;;;;;;19.76;60.26;99225.31;4517410;31;20013;-83
2022/05/25 00:43:59;;;;;;;;;;;;;;;19.80;60.27;99232.03;4517384;31;20085;-83
2022/05/25 00:46:25;;;;;;;;;;;;;;;19.92;60.28;99225.78;4517198;31;19983;-84
2022/05/25 00:48:51;;;;;;;;;;;;;;;19.81;60.27;99236.34;4502747;31;19986;-83
2022/05/25 00:51:27;;;;;;;;;;;;;;;19.81;60.27;99232.88;4502859;31;19994;-84
2022/05/25 00:53:59;;;;;;;;;;;;;;;19.81;60.27;99223.13;4502561;31;20022;-84
2022/05/25 00:56:24;;;;;;;;;;;;;;;19.80;60.27;99218.81;4486060;31;19991;-83
2022/05/25 00:58:53;;;;;;;;;;;;;;;19.91;60.29;99224.13;4484174;32;19972;-84
2022/05/25 01:01:19;;;;;;;;;;;;;;;19.88;60.27;99232.28;4471071;32;19988;-83
2022/05/25 01:03:44;;;;;;;;;;;;;;;19.91;60.27;99234.69;4485412;31;20586;-83
2022/05/25 01:06:28;;;;;;;;;;;;;;;19.91;60.27;99239.97;4484892;32;20583;-84
2022/05/25 01:08:56;;;;;;;;;;;;;;;19.96;60.28;99238.75;4484935;31;20015;-83
2022/05/25 01:11:37;;;;;;;;;;;;;;;19.91;60.27;99241.78;4471259;32;19996;-84
2022/05/25 01:14:21;;;;;;;;;;;;;;;19.93;60.28;99243.31;4486074;32;19991;-84
2022/05/25 01:16:53;;;;;;;;;;;;;;;19.92;60.27;99232.88;4486902;31;19977;-84
2022/05/25 01:19:21;;;;;;;;;;;;;;;19.88;60.27;99234.94;4486288;31;20324;-84
2022/05/25 01:21:46;;;;;;;;;;;;;;;19.98;60.28;99236.84;4485460;32;19995;-84
2022/05/25 01:24:37;;;;;;;;;;;;;;;19.92;60.27;99240.81;4485267;32;20032;-84
2022/05/25 01:27:16;;;;;;;;;;;;;;;19.90;60.27;99254.13;4482135;31;20143;-84
2022/05/25 01:29:47;;;;;;;;;;;;;;;19.89;60.27;99248.97;4484092;32;20032;-84
2022/05/25 01:32:25;;;;;;;;;;;;;;;19.95;60.28;99245.00;4485237;32;19976;-84
2022/05/25 01:35:12;;;;;;;;;;;;;;;19.85;60.28;99247.50;4484030;32;20013;-84
2022/05/25 01:37:43;;;;;;;;;;;;;;;19.97;60.28;99243.91;4470991;32;20632;-84
2022/05/25 01:40:21;;;;;;;;;;;;;;;19.87;60.27;99246.47;4485130;32;19965;-82
2022/05/25 01:42:47;;;;;;;;;;;;;;;19.84;60.27;99244.03;4483773;32;19996;-84
2022/05/25 01:45:12;;;;;;;;;;;;;;;19.89;60.27;99251.63;4483694;32;20312;-83
2022/05/25 01:47:38;;;;;;;;;;;;;;;19.87;60.27;99256.16;4483376;31;20291;-84
2022/05/25 01:50:14;;;;;;;;;;;;;;;19.95;60.28;99256.41;4483636;32;19999;-84
2022/05/25 01:52:40;;;;;;;;;;;;;;;19.87;60.27;99249.09;4470377;32;20080;-84
2022/05/25 01:55:12;;;;;;;;;;;;;;;19.92;60.28;99236.38;4483581;32;20006;-84
2022/05/25 01:57:37;;;;;;;;;;;;;;;19.91;60.27;99229.41;4484893;32;19964;-83
2022/05/25 02:00:03;;;;;;;;;;;;;;;19.93;60.28;99232.75;4483878;32;19980;-83
2022/05/25 02:05:13;;;;;;;;;;;;;;;20.00;60.27;99240.19;4483677;32;20002;-84
2022/05/25 02:07:39;;;;;;;;;;;;;;;19.73;60.27;99251.97;4483576;32;20331;-83
2022/05/25 02:10:27;;;;;;;;;;;;;;;19.71;60.27;99247.75;4484619;31;20028;-84
2022/05/25 02:12:57;;;;;;;;;;;;;;;19.88;60.27;99247.28;4476142;32;19976;-83
2022/05/25 02:15:22;;;;;;;;;;;;;;;19.81;60.27;99243.44;4483534;32;20000;-83
2022/05/25 02:17:52;;;;;;;;;;;;;;;19.87;60.27;99240.31;4483251;32;19987;-83
2022/05/25 02:20:25;;;;;;;;;;;;;;;19.76;60.26;99243.78;4470723;32;20337;-83
2022/05/25 02:22:51;;;;;;;;;;;;;;;19.63;60.26;99233.31;4486791;31;20007;-84
2022/05/25 02:25:16;;;;;;;;;;;;;;;19.69;60.26;99233.84;4485244;32;20351;-83
2022/05/25 02:27:46;;;;;;;;;;;;;;;19.69;60.25;99233.84;4486689;32;19968;-84
2022/05/25 02:30:13;;;;;;;;;;;;;;;19.63;60.26;99240.41;4472297;32;20329;-84
2022/05/25 02:32:51;;;;;;;;;;;;;;;19.53;60.25;99239.41;4485420;32;19984;-83
2022/05/25 02:35:16;;;;;;;;;;;;;;;19.50;60.25;99226.47;4485482;32;20012;-83
2022/05/25 02:37:43;;;;;;;;;;;;;;;19.66;60.26;99236.72;4484808;32;22708;-84
2022/05/25 02:40:08;;;;;;;;;;;;;;;19.58;60.25;99237.28;4485411;32;20007;-83
2022/05/25 02:42:36;;;;;;;;;;;;;;;19.60;60.26;99222.16;4485297;32;19981;-83
2022/05/25 02:45:02;;;;;;;;;;;;;;;19.64;60.26;99226.28;4485765;32;20002;-84
2022/05/25 02:47:27;;;;;;;;;;;;;;;19.71;60.27;99229.28;4485069;31;19985;-83
2022/05/25 02:49:52;;;;;;;;;;;;;;;19.49;60.26;99237.97;4486560;32;19980;-83
2022/05/25 02:52:17;;;;;;;;;;;;;;;19.46;60.26;99231.13;4486435;32;19980;-84
2022/05/25 02:54:43;;;;;;;;;;;;;;;19.57;60.26;99225.88;4486162;31;20331;-83
2022/05/25 02:57:09;;;;;;;;;;;;;;;19.43;60.25;99230.53;4485131;32;20025;-84
2022/05/25 02:59:34;;;;;;;;;;;;;;;19.30;60.24;99231.47;4486585;31;20264;-83
2022/05/25 03:02:02;;;;;;;;;;;;;;;19.28;60.24;99246.56;4485268;32;20337;-84
2022/05/25 03:04:27;;;;;;;;;;;;;;;19.27;60.24;99233.50;4485139;32;19992;-83
2022/05/25 03:06:52;;;;;;;;;;;;;;;19.29;60.24;99232.41;4485940;32;19995;-83
2022/05/25 03:09:18;;;;;;;;;;;;;;;19.22;60.24;99238.28;4486141;32;20031;-84
2022/05/25 03:11:43;;;;;;;;;;;;;;;19.29;60.24;99231.56;4486254;32;19984;-83
2022/05/25 03:14:08;;;;;;;;;;;;;;;19.25;60.24;99232.78;4486119;32;19996;-84
2022/05/25 03:16:33;;;;;;;;;;;;;;;19.26;60.24;99243.22;4486194;32;19991;-84
2022/05/25 03:18:59;;;;;;;;;;;;;;;19.30;60.23;99231.47;4484970;32;20035;-84
2022/05/25 03:21:25;;;;;;;;;;;;;;;19.10;60.23;99241.84;4486249;32;20034;-83
2022/05/25 03:23:50;;;;;;;;;;;;;;;19.19;60.23;99234.09;4484871;32;19992;-84
2022/05/25 03:26:15;;;;;;;;;;;;;;;19.14;60.25;99233.56;4484789;32;20341;-83
2022/05/25 03:28:40;;;;;;;;;;;;;;;19.14;60.23;99235.38;4484575;32;19984;-83
2022/05/25 03:31:06;;;;;;;;;;;;;;;19.35;60.25;99222.34;4486116;32;20011;-84
2022/05/25 03:33:34;;;;;;;;;;;;;;;19.24;60.24;99231.94;4483948;32;20176;-83
2022/05/25 03:35:59;;;;;;;;;;;;;;;19.33;60.25;99230.38;4484894;32;20412;-84
2022/05/25 03:38:27;;;;;;;;;;;;;;;19.21;60.24;99232.16;4486040;32;19981;-83
2022/05/25 03:40:52;;;;;;;;;;;;;;;19.30;60.24;99239.37;4484939;32;19995;-83
2022/05/25 03:43:18;;;;;;;;;;;;;;;19.35;60.25;99243.47;4484827;32;19992;-84
2022/05/25 03:45:43;;;;;;;;;;;;;;;19.36;60.24;99243.34;4484485;32;19996;-84
2022/05/25 03:48:08;;;;;;;;;;;;;;;19.40;60.25;99259.78;4471589;32;19995;-83
2022/05/25 03:50:41;;;;;;;;;;;;;;;19.54;60.26;99257.81;4484499;32;19985;-83
2022/05/25 03:53:07;;;;;;;;;;;;;;;19.57;60.26;99259.38;4486113;31;20322;-83
2022/05/25 03:55:33;;;;;;;;;;;;;;;19.73;60.27;99254.59;4486025;31;19976;-83
2022/05/25 03:57:58;;;;;;;;;;;;;;;19.72;60.27;99257.34;4484900;32;20345;-83
2022/05/25 04:00:24;;;;;;;;;;;;;;;19.80;60.27;99258.44;4485376;32;22193;-83
2022/05/25 04:02:49;;;;;;;;;;;;;;;19.83;60.27;99267.91;4484779;32;19998;-83
2022/05/25 04:05:14;;;;;;;;;;;;;;;19.89;60.27;99276.22;4485861;31;20029;-83
2022/05/25 04:07:40;;;;;;;;;;;;;;;19.95;60.28;99272.25;4486000;32;20023;-84
2022/05/25 04:10:06;;;;;;;;;;;;;;;20.08;60.27;99269.47;4485125;32;20054;-83
2022/05/25 04:12:32;;;;;;;;;;;;;;;20.07;60.28;99275.72;4486028;31;20287;-84
2022/05/25 04:14:57;;;;;;;;;;;;;;;20.18;60.29;99271.28;4484680;32;19985;-83
2022/05/25 04:17:22;;;;;;;;;;;;;;;20.33;60.29;99276.31;4486066;32;20357;-84
2022/05/25 04:19:47;;;;;;;;;;;;;;;20.46;60.29;99275.25;4485732;32;19969;-84
2022/05/25 04:22:13;;;;;;;;;;;;;;;20.41;60.31;99274.78;4484218;32;20889;-83
2022/05/25 04:24:38;;;;;;;;;;;;;;;20.51;60.30;99278.34;4483740;32;19987;-84
2022/05/25 04:27:03;;;;;;;;;;;;;;;20.67;60.32;99282.41;4485696;32;19964;-84
2022/05/25 04:29:28;;;;;;;;;;;;;;;20.65;60.32;99289.63;4485912;31;19981;-84
2022/05/25 04:31:54;;;;;;;;;;;;;;;20.73;60.32;99295.97;4471297;32;20032;-83
2022/05/25 04:34:19;;;;;;;;;;;;;;;20.82;60.32;99295.25;4484210;32;19991;-83
2022/05/25 04:36:44;;;;;;;;;;;;;;;20.72;60.32;99277.59;4485365;32;19981;-84
2022/05/25 04:39:09;;;;;;;;;;;;;;;20.78;60.32;99277.91;4484433;32;20037;-84
2022/05/25 04:41:36;;;;;;;;;;;;;;;20.73;60.32;99256.31;4485459;32;20344;-84
2022/05/25 04:44:03;;;;;;;;;;;;;;;20.71;60.32;99266.16;4470196;32;20506;-83
2022/05/25 04:46:28;;;;;;;;;;;;;;;20.65;60.31;99263.19;4485210;31;20321;-83
2022/05/25 04:48:53;;;;;;;;;;;;;;;20.72;60.32;99280.22;4471147;32;20007;-83
2022/05/25 04:51:18;;;;;;;;;;;;;;;20.70;60.31;99279.53;4485624;32;19992;-84
2022/05/25 04:53:44;;;;;;;;;;;;;;;20.66;60.31;99276.28;4485356;31;20305;-84
2022/05/25 04:58:53;;;;;;;;;;;;;;;20.88;60.33;99287.78;4486270;32;20048;-84
2022/05/25 05:01:19;;;;;;;;;;;;;;;20.89;60.33;99287.66;4486504;32;23583;-84
2022/05/25 05:03:44;;;;;;;;;;;;;;;20.97;60.33;99285.19;4485881;31;19987;-84
2022/05/25 05:06:10;;;;;;;;;;;;;;;20.99;60.33;99299.13;4483395;32;20051;-84
2022/05/25 05:08:36;;;;;;;;;;;;;;;20.94;60.33;99295.19;4485363;31;20343;-83
2022/05/25 05:11:14;;;;;;;;;;;;;;;21.03;60.34;99295.28;4485590;31;20303;-82
2022/05/25 05:13:39;;;;;;;;;;;;;;;21.05;60.33;99301.28;4485476;31;20364;-84
2022/05/25 05:16:05;;;;;;;;;;;;;;;21.18;60.34;99302.91;4485614;32;20022;-84
2022/05/25 05:18:30;;;;;;;;;;;;;;;21.29;60.35;99306.38;4484178;32;19996;-84
2022/05/25 05:20:55;;;;;;;;;;;;;;;21.40;60.35;99308.97;4483854;32;20034;-84
2022/05/25 05:23:21;;;;;;;;;;;;;;;21.35;60.35;99307.69;4485426;32;20009;-85
2022/05/25 05:25:46;;;;;;;;;;;;;;;21.43;60.35;99307.87;4485624;31;20093;-84
2022/05/25 05:28:14;;;;;;;;;;;;;;;21.61;60.36;99313.44;4483487;32;27826;-84
2022/05/25 05:30:40;;;;;;;;;;;;;;;21.66;60.37;99316.53;4484261;32;20000;-84
2022/05/25 05:33:05;;;;;;;;;;;;;;;21.76;60.37;99320.06;4485521;31;19980;-84
2022/05/25 05:35:30;;;;;;;;;;;;;;;21.83;60.37;99329.19;4483905;32;19982;-84
2022/05/25 05:37:55;;;;;;;;;;;;;;;21.93;60.37;99323.94;4484243;32;20010;-84
2022/05/25 05:40:20;;;;;;;;;;;;;;;21.97;60.38;99326.19;4484096;32;19988;-84
2022/05/25 05:42:46;;;;;;;;;;;;;;;22.10;60.40;99330.50;4484866;32;19976;-84
2022/05/25 05:45:14;;;;;;;;;;;;;;;22.17;60.39;99336.94;4485155;31;20129;-84
2022/05/25 05:47:41;;;;;;;;;;;;;;;22.10;60.39;99336.63;4483840;32;20324;-84
2022/05/25 05:50:07;;;;;;;;;;;;;;;22.22;60.40;99335.56;4483653;32;19991;-84
2022/05/25 05:52:32;;;;;;;;;;;;;;;22.15;60.39;99334.41;4470142;32;20018;-84
2022/05/25 05:54:58;;;;;;;;;;;;;;;22.17;60.39;99345.72;4483127;32;20625;-84
2022/05/25 05:57:23;;;;;;;;;;;;;;;22.42;60.41;99346.25;4485128;32;20010;-84
2022/05/25 05:59:48;;;;;;;;;;;;;;;22.36;60.41;99352.94;4484139;32;20051;-84
2022/05/25 06:02:13;;;;;;;;;;;;;;;22.51;60.41;99356.91;4485205;32;20051;-84
2022/05/25 06:04:39;;;;;;;;;;;;;;;22.61;60.42;99348.97;4483734;32;19980;-84
2022/05/25 06:07:04;;;;;;;;;;;;;;;22.67;60.42;99348.41;4484841;32;19976;-84
2022/05/25 06:09:29;;;;;;;;;;;;;;;22.59;60.42;99343.78;4483451;32;19996;-84
2022/05/25 06:11:55;;;;;;;;;;;;;;;22.54;60.41;99335.41;4485101;31;19981;-84
2022/05/25 06:14:20;;;;;;;;;;;;;;;22.44;60.40;99339.00;4483557;32;20300;-84
2022/05/25 06:19:33;;;;;;;;;;;;;;;22.48;60.42;99346.56;4484820;32;20348;-84
2022/05/25 06:21:59;;;;;;;;;;;;;;;22.49;60.41;99348.25;4483755;32;20041;-84
2022/05/25 06:24:25;;;;;;;;;;;;;;;22.61;60.42;99346.31;4483586;32;19972;-84
2022/05/25 06:26:50;;;;;;;;;;;;;;;22.83;60.43;99348.78;4483714;32;20014;-84
2022/05/25 06:29:17;;;;;;;;;;;;;;;22.80;60.43;99361.44;4483273;32;19984;-84
2022/05/25 06:31:43;;;;;;;;;;;;;;;22.95;60.44;99350.34;4483582;32;19981;-84
2022/05/25 06:34:08;;;;;;;;;;;;;;;23.02;60.43;99350.63;4483268;32;19983;-85
2022/05/25 06:36:34;;;;;;;;;;;;;;;22.98;60.44;99343.94;4483200;32;19973;-84
2022/05/25 06:38:59;;;;;;;;;;;;;;;23.06;60.45;99336.09;4484806;31;19989;-85
2022/05/25 06:41:25;;;;;;;;;;;;;;;23.19;60.45;99331.37;4484727;31;20001;-84
2022/05/25 06:43:50;;;;;;;;;;;;;;;23.48;60.46;99331.34;4483571;32;19987;-85
2022/05/25 06:46:18;;;;;;;;;;;;;;;23.72;60.47;99336.25;4483265;32;19990;-84
2022/05/25 06:48:44;;;;;;;;;;;;;;;23.98;60.49;99328.50;4484718;31;19992;-84
2022/05/25 06:51:09;;;;;;;;;;;;;;;24.09;60.49;99330.97;4490456;32;20006;-84
2022/05/25 06:53:35;;;;;;;;;;;;;;;24.16;60.49;99331.25;4489926;32;19976;-84
2022/05/25 06:56:00;;;;;;;;;;;;;;;24.44;60.50;99334.78;4482850;32;20047;-84
2022/05/25 06:58:25;;;;;;;;;;;;;;;24.54;60.52;99335.56;4469329;32;20007;-84
2022/05/25 07:00:50;;;;;;;;;;;;;;;24.70;60.53;99341.09;4469537;32;19988;-84
2022/05/25 07:03:16;;;;;;;;;;;;;;;24.88;60.53;99337.63;4469082;32;24214;-84
2022/05/25 07:05:41;;;;;;;;;;;;;;;24.85;60.54;99346.75;4469662;32;20034;-84
2022/05/25 07:08:06;;;;;;;;;;;;;;;24.93;60.53;99348.66;4470425;32;25376;-84
2022/05/25 07:10:32;;;;;;;;;;;;;;;25.02;60.54;99353.09;4485084;32;19999;-85
2022/05/25 07:12:57;;;;;;;;;;;;;;;25.16;60.55;99346.44;4484935;32;20037;-84
2022/05/25 07:15:22;;;;;;;;;;;;;;;25.28;60.55;99339.88;4485916;32;20023;-84
2022/05/25 07:17:48;;;;;;;;;;;;;;;25.35;60.56;99328.47;4485007;32;20000;-84
2022/05/25 07:20:13;;;;;;;;;;;;;;;25.46;60.57;99331.88;4485275;32;19977;-84
2022/05/25 07:22:38;;;;;;;;;;;;;;;25.55;60.57;99336.25;4472001;32;20230;-85
2022/05/25 07:25:04;;;;;;;;;;;;;;;25.61;60.58;99343.66;4484955;32;19984;-84
2022/05/25 07:27:29;;;;;;;;;;;;;;;25.73;60.58;99342.44;4485079;32;20005;-84
2022/05/25 07:29:54;;;;;;;;;;;;;;;25.81;60.58;99344.34;4484878;32;20000;-84
2022/05/25 07:32:19;;;;;;;;;;;;;;;25.99;60.59;99345.94;4471184;32;28725;-84
2022/05/25 07:34:55;;;;;;;;;;;;;;;25.91;60.58;99337.91;4484861;32;20006;-84
2022/05/25 07:37:22;;;;;;;;;;;;;;;26.16;60.60;99346.88;4471867;32;19996;-84
2022/05/25 07:39:49;;;;;;;;;;;;;;;26.23;60.60;99344.41;4484970;32;19976;-84
2022/05/25 07:42:14;;;;;;;;;;;;;;;26.50;60.62;99338.06;4486193;31;19972;-85
2022/05/25 07:44:41;;;;;;;;;;;;;;;26.44;60.62;99344.87;4484855;32;20038;-84
2022/05/25 07:47:06;;;;;;;;;;;;;;;26.52;60.62;99338.78;4484931;31;19992;-84
2022/05/25 07:49:31;;;;;;;;;;;;;;;26.53;60.61;99345.78;4484446;32;23968;-85
2022/05/25 07:51:57;;;;;;;;;;;;;;;26.60;60.62;99352.13;4484660;32;19989;-84
2022/05/25 07:54:23;;;;;;;;;;;;;;;26.50;60.62;99349.62;4471789;32;20016;-84
2022/05/25 07:56:48;;;;;;;;;;;;;;;26.49;60.62;99344.41;4486137;32;19980;-84
2022/05/25 07:59:14;;;;;;;;;;;;;;;26.59;60.62;99345.97;4485932;32;20356;-85
2022/05/25 08:07:08;;;;;;;;;;;;;;;26.85;60.64;99345.87;4485179;32;20040;-84
2022/05/25 08:09:33;;;;;;;;;;;;;;;26.87;60.63;99353.72;4484659;32;19976;-85
2022/05/25 08:11:58;;;;;;;;;;;;;;;27.03;60.65;99347.63;4486051;32;19998;-84
2022/05/25 08:14:25;;;;;;;;;;;;;;;26.99;60.64;99351.59;4485489;32;19983;-84
2022/05/25 08:16:50;;;;;;;;;;;;;;;27.12;60.66;99347.47;4484745;32;20007;-84
2022/05/25 08:19:15;;;;;;;;;;;;;;;27.25;60.65;99341.66;4484436;32;19972;-84
2022/05/25 08:21:40;;;;;;;;;;;;;;;27.44;60.67;99337.81;4485935;32;20014;-85
2022/05/25 08:24:06;;;;;;;;;;;;;;;27.61;60.68;99341.31;4485931;32;20211;-84
2022/05/25 08:26:31;;;;;;;;;;;;;;;27.81;60.68;99331.97;4485940;31;19996;-84
2022/05/25 08:28:56;;;;;;;;;;;;;;;27.93;60.69;99337.81;4485415;32;20249;-84
2022/05/25 08:31:21;;;;;;;;;;;;;;;28.15;60.71;99323.69;4484695;32;19973;-85
2022/05/25 08:33:47;;;;;;;;;;;;;;;28.36;60.71;99324.00;4485832;32;20000;-85
2022/05/25 08:36:12;;;;;;;;;;;;;;;28.57;60.73;99330.59;4484574;32;20012;-84
2022/05/25 08:38:37;;;;;;;;;;;;;;;28.65;60.72;99341.28;4485468;32;19996;-85
2022/05/25 08:41:02;;;;;;;;;;;;;;;28.83;60.73;99331.13;4485865;32;20023;-85
2022/05/25 08:43:29;;;;;;;;;;;;;;;28.85;60.73;99333.62;4497218;32;20003;-85
2022/05/25 08:45:57;;;;;;;;;;;;;;;28.62;60.73;99329.06;4485738;31;19995;-84
2022/05/25 08:48:23;;;;;;;;;;;;;;;28.88;60.75;99333.34;4484734;32;19991;-84
2022/05/25 08:50:50;;;;;;;;;;;;;;;28.99;60.74;99336.44;4484612;32;20017;-84
2022/05/25 08:53:15;;;;;;;;;;;;;;;29.17;60.76;99332.66;4484546;32;20353;-84
2022/05/25 08:55:40;;;;;;;;;;;;;;;29.29;60.76;99329.34;4484175;32;19984;-84
2022/05/25 08:58:05;;;;;;;;;;;;;;;29.52;60.77;99320.47;4484351;32;20017;-84
2022/05/25 09:00:30;;;;;;;;;;;;;;;29.66;60.78;99327.75;4485299;32;19976;-84
2022/05/25 09:03:02;;;;;;;;;;;;;;;29.62;60.77;99326.44;4485705;32;20053;-84
2022/05/25 09:05:34;;;;;;;;;;;;;;;29.57;60.78;99324.28;4485560;32;19989;-84
2022/05/25 09:08:02;;;;;;;;;;;;;;;29.16;60.76;99321.09;4484450;32;19976;-84
2022/05/25 09:10:28;;;;;;;;;;;;;;;29.18;60.76;99326.25;4484395;32;19980;-84
2022/05/25 09:12:55;;;;;;;;;;;;;;;29.26;60.77;99323.50;4484223;32;19989;-83
2022/05/25 09:15:24;;;;;;;;;;;;;;;29.39;60.77;99328.28;4484386;32;19992;-83
2022/05/25 09:17:49;;;;;;;;;;;;;;;29.51;60.77;99322.34;4471047;32;20032;-82
2022/05/25 09:20:16;;;;;;;;;;;;;;;29.53;60.77;99333.72;4485523;32;20245;-82
2022/05/25 09:22:42;;;;;;;;;;;;;;;29.64;60.78;99327.94;4484173;32;20341;-82
2022/05/25 09:25:07;;;;;;;;;;;;;;;29.63;60.78;99330.78;4483546;32;22983;-82
2022/05/25 09:27:53;;;;;;;;;;;;;;;29.85;60.78;99331.75;4484176;32;20323;-82
2022/05/25 09:30:18;;;;;;;;;;;;;;;30.16;60.81;99334.31;4473210;32;20016;-82
2022/05/25 09:32:43;;;;;;;;;;;;;;;30.03;60.80;99334.94;4485204;31;19994;-82
2022/05/25 09:35:13;;;;;;;;;;;;;;;29.91;60.80;99336.38;4485323;32;20264;-82
2022/05/25 09:37:46;;;;;;;;;;;;;;;29.86;60.78;99328.06;4485304;31;19997;-82
2022/05/25 09:40:22;;;;;;;;;;;;;;;30.16;60.80;99332.47;4484073;32;19976;-82
2022/05/25 09:42:56;;;;;;;;;;;;;;;30.30;60.82;99324.59;4483870;32;19989;-82
2022/05/25 09:45:21;;;;;;;;;;;;;;;30.48;60.83;99336.59;4485193;31;19987;-82
2022/05/25 09:47:47;;;;;;;;;;;;;;;30.47;60.82;99329.56;4485201;31;20008;-82
2022/05/25 09:50:31;;;;;;;;;;;;;;;30.52;60.83;99334.38;4485195;31;20009;-82
2022/05/25 09:52:56;;;;;;;;;;;;;;;30.41;60.82;99334.84;4485478;31;20074;-82
2022/05/25 09:55:25;;;;;;;;;;;;;;;30.32;60.82;99336.00;4483854;32;20321;-82
2022/05/25 09:57:58;;;;;;;;;;;;;;;30.25;60.81;99342.06;4483700;32;20385;-82
2022/05/25 10:00:33;;;;;;;;;;;;;;;30.40;60.82;99343.94;4485077;31;19990;-82
2022/05/25 10:02:59;;;;;;;;;;;;;;;30.40;60.82;99333.19;4484983;32;20011;-82
2022/05/25 10:05:25;;;;;;;;;;;;;;;30.13;60.81;99338.19;4483744;32;20527;-82
2022/05/25 10:08:03;;;;;;;;;;;;;;;30.18;60.81;99335.78;4483601;32;20295;-82
2022/05/25 10:10:28;;;;;;;;;;;;;;;30.04;60.81;99330.41;4483626;32;20039;-82
2022/05/25 10:13:02;;;;;;;;;;;;;;;30.31;60.81;99337.00;4484686;32;20014;-82
2022/05/25 10:15:29;;;;;;;;;;;;;;;30.68;60.84;99333.38;4484837;32;20055;-82
2022/05/25 10:17:54;;;;;;;;;;;;;;;30.99;60.84;99325.03;4484796;31;19994;-82
2022/05/25 10:20:30;;;;;;;;;;;;;;;30.80;60.84;99332.72;4484267;32;19988;-82
2022/05/25 10:23:02;;;;;;;;;;;;;;;30.81;60.84;99322.78;4470194;32;20034;-82
2022/05/25 10:25:28;;;;;;;;;;;;;;;30.76;60.83;99325.22;4484730;32;20014;-82
2022/05/25 10:27:53;;;;;;;;;;;;;;;30.68;60.84;99325.31;4483355;32;19980;-82
2022/05/25 10:38:40;;;;;;;;;;;;;;;30.47;60.83;99318.00;4484587;32;19999;-82
2022/05/25 10:44:09;;;;;;;;;;;;;;;30.47;60.82;99323.37;4485206;32;20006;-82
2022/05/25 10:46:34;;;;;;;;;;;;;;;30.64;60.83;99319.47;4472171;32;20039;-82
2022/05/25 10:49:19;;;;;;;;;;;;;;;30.79;60.84;99322.97;4484961;32;20058;-82
2022/05/25 10:51:49;;;;;;;;;;;;;;;30.75;60.83;99324.34;4485988;32;19991;-82
2022/05/25 10:57:17;;;;;;;;;;;;;;;30.70;60.84;99323.25;4486649;32;20172;-82
2022/05/25 11:00:00;;;;;;;;;;;;;;;30.48;60.83;99333.09;4486892;31;20358;-82
2022/05/25 11:02:44;;;;;;;;;;;;;;;30.07;60.80;99325.53;4485120;32;19988;-82
2022/05/25 11:05:28;;;;;;;;;;;;;;;30.35;60.82;99327.56;4486813;31;20025;-82
2022/05/25 11:07:55;;;;;;;;;;;;;;;30.48;60.83;99316.97;4486497;31;20002;-82
2022/05/25 11:10:28;;;;;;;;;;;;;;;30.81;60.84;99322.78;4485301;32;20025;-82
2022/05/25 11:12:57;;;;;;;;;;;;;;;30.95;60.85;99329.13;4485029;32;20004;-82
2022/05/25 11:15:45;;;;;;;;;;;;;;;30.97;60.85;99321.69;4486453;32;20010;-82
2022/05/25 11:18:11;;;;;;;;;;;;;;;31.25;60.87;99328.03;4477924;32;20003;-82
2022/05/25 11:20:56;;;;;;;;;;;;;;;31.24;60.87;99323.69;4486402;31;19976;-83
2022/05/25 11:23:40;;;;;;;;;;;;;;;31.14;60.85;99332.03;4486343;31;19972;-82
2022/05/25 11:26:24;;;;;;;;;;;;;;;30.78;60.84;99329.38;4486549;31;19984;-82
2022/05/25 11:28:59;;;;;;;;;;;;;;;30.81;60.84;99334.38;4486600;31;20477;-83
2022/05/25 11:31:24;;;;;;;;;;;;;;;31.26;60.86;99327.03;4485237;32;19995;-82
2022/05/25 11:34:01;;;;;;;;;;;;;;;31.39;60.86;99331.69;4484704;32;20000;-83
2022/05/25 11:36:42;;;;;;;;;;;;;;;31.39;60.86;99331.69;4486263;32;20003;-82
2022/05/25 11:39:19;;;;;;;;;;;;;;;31.46;60.87;99327.19;4486172;32;20387;-82
2022/05/25 11:41:48;;;;;;;;;;;;;;;31.09;60.86;99323.72;4486167;32;20281;-82
2022/05/25 11:44:17;;;;;;;;;;;;;;;30.51;60.83;99325.47;4484791;32;19985;-82
2022/05/25 11:46:43;;;;;;;;;;;;;;;30.70;60.84;99318.72;4484689;31;20052;-83
2022/05/25 11:49:15;;;;;;;;;;;;;;;30.84;60.85;99322.41;4484846;32;19992;-83
2022/05/25 11:51:46;;;;;;;;;;;;;;;31.04;60.85;99328.84;4486102;31;20437;-82
2022/05/25 11:54:30;;;;;;;;;;;;;;;30.61;60.83;99335.16;4485574;32;19995;-83
2022/05/25 11:56:56;;;;;;;;;;;;;;;29.86;60.79;99336.94;4486265;31;20284;-82
2022/05/25 11:59:36;;;;;;;;;;;;;;;29.38;60.77;99342.72;4486217;31;19981;-82
2022/05/25 12:02:14;;;;;;;;;;;;;;;29.49;60.78;99344.97;4486132;32;20032;-82
2022/05/25 12:04:52;;;;;;;;;;;;;;;29.29;60.77;99340.06;4484649;32;19988;-82
2022/05/25 12:07:44;;;;;;;;;;;;;;;29.16;60.77;99345.22;4471836;32;19992;-82
2022/05/25 12:10:17;;;;;;;;;;;;;;;29.13;60.76;99350.09;4461568;31;20088;-82
2022/05/25 12:13:01;;;;;;;;;;;;;;;29.16;60.77;99339.00;4484933;32;20031;-82
2022/05/25 12:15:30;;;;;;;;;;;;;;;29.23;60.76;99343.47;4486409;31;20026;-82
2022/05/25 12:17:56;;;;;;;;;;;;;;;29.10;60.76;99359.28;4484860;32;20007;-82
2022/05/25 12:20:27;;;;;;;;;;;;;;;29.33;60.78;99356.62;4486206;32;19981;-82
2022/05/25 12:22:52;;;;;;;;;;;;;;;29.01;60.76;99357.69;4484438;32;19973;-82
2022/05/25 12:25:17;;;;;;;;;;;;;;;28.84;60.75;99364.94;4484686;32;20079;-82
2022/05/25 12:27:52;;;;;;;;;;;;;;;28.66;60.73;99357.19;4486039;32;20068;-83
2022/05/25 12:30:32;;;;;;;;;;;;;;;28.46;60.73;99368.47;4485610;32;20007;-83
2022/05/25 12:32:58;;;;;;;;;;;;;;;28.26;60.71;99365.34;4484527;32;20025;-83
2022/05/25 12:35:24;;;;;;;;;;;;;;;28.19;60.71;99370.53;4471411;32;20027;-83
2022/05/25 12:37:53;;;;;;;;;;;;;;;28.25;60.72;99363.69;4484465;32;19988;-83
2022/05/25 12:40:30;;;;;;;;;;;;;;;28.37;60.73;99362.31;4484527;32;20040;-83
2022/05/25 12:42:56;;;;;;;;;;;;;;;28.34;60.72;99371.50;4485781;31;20444;-83
2022/05/25 12:48:38;;;;;;;;;;;;;;;28.08;60.70;99360.19;4485771;32;20340;-83
2022/05/25 12:51:10;;;;;;;;;;;;;;;28.21;60.72;99365.84;4473466;32;19988;-83
2022/05/25 12:53:37;;;;;;;;;;;;;;;28.26;60.71;99349.31;4485637;31;20017;-83
2022/05/25 12:56:07;;;;;;;;;;;;;;;28.31;60.72;99358.47;4485782;31;19968;-83
2022/05/25 12:58:33;;;;;;;;;;;;;;;28.43;60.72;99349.06;4484693;32;19999;-83
2022/05/25 13:01:27;;;;;;;;;;;;;;;28.68;60.73;99348.97;4484387;32;19998;-83
2022/05/25 13:03:56;;;;;;;;;;;;;;;28.59;60.73;99350.00;4485699;31;19983;-84
2022/05/25 13:06:22;;;;;;;;;;;;;;;28.48;60.73;99347.72;4483257;32;19989;-83
2022/05/25 13:08:47;;;;;;;;;;;;;;;28.46;60.72;99341.72;4485643;31;20348;-83
2022/05/25 13:11:28;;;;;;;;;;;;;;;28.42;60.72;99338.53;4484202;32;19993;-83
2022/05/25 13:13:53;;;;;;;;;;;;;;;28.54;60.73;99333.62;4484171;32;19995;-84
2022/05/25 13:16:37;;;;;;;;;;;;;;;28.55;60.73;99337.97;4484335;32;20325;-83
2022/05/25 13:19:21;;;;;;;;;;;;;;;28.45;60.73;99332.00;4485571;31;20007;-83
2022/05/25 13:21:53;;;;;;;;;;;;;;;28.53;60.73;99335.47;4485637;31;20004;-83
2022/05/25 13:24:37;;;;;;;;;;;;;;;28.73;60.74;99339.41;4484171;32;19991;-83
2022/05/25 13:27:06;;;;;;;;;;;;;;;28.77;60.74;99337.19;4485495;31;19968;-84